sensor_id;sensor_type;location;lat;lon;timestamp;P1;durP1;ratioP1;P2;durP2;ratioP2
11711;SDS011;5912;51.034;6.984;2024-02-04T00:01:40;2.67;;;2.38;;
11711;SDS011;5912;51.034;6.984;2024-02-04T00:04:06;1.83;;;1.73;;
11711;SDS011;5912;51.034;6.984;2024-02-04T00:06:31;1.52;;;1.27;;
11711;SDS011;5912;51.034;6.984;2024-02-04T00:08:57;1.60;;;0.90;;
11711;SDS011;5912;51.034;6.984;2024-02-04T00:11:22;0.90;;;0.77;;
11711;SDS011;5912;51.034;6.984;2024-02-04T00:13:48;0.88;;;0.80;;
11711;SDS011;5912;51.034;6.984;2024-02-04T00:16:13;0.75;;;0.70;;
11711;SDS011;5912;51.034;6.984;2024-02-04T00:18:38;0.80;;;0.80;;
11711;SDS011;5912;51.034;6.984;2024-02-04T00:21:04;1.00;;;0.80;;
11711;SDS011;5912;51.034;6.984;2024-02-04T00:23:29;0.93;;;0.85;;
11711;SDS011;5912;51.034;6.984;2024-02-04T00:25:55;1.30;;;1.15;;
11711;SDS011;5912;51.034;6.984;2024-02-04T00:28:20;1.98;;;1.73;;
11711;SDS011;5912;51.034;6.984;2024-02-04T00:30:46;1.60;;;1.50;;
11711;SDS011;5912;51.034;6.984;2024-02-04T00:33:11;2.75;;;2.45;;
11711;SDS011;5912;51.034;6.984;2024-02-04T00:35:36;3.00;;;2.80;;
11711;SDS011;5912;51.034;6.984;2024-02-04T00:38:02;3.47;;;3.13;;
11711;SDS011;5912;51.034;6.984;2024-02-04T00:40:28;4.68;;;3.50;;
11711;SDS011;5912;51.034;6.984;2024-02-04T00:42:53;3.60;;;3.30;;
11711;SDS011;5912;51.034;6.984;2024-02-04T00:45:19;5.47;;;4.03;;
11711;SDS011;5912;51.034;6.984;2024-02-04T00:47:44;3.83;;;3.53;;
11711;SDS011;5912;51.034;6.984;2024-02-04T00:50:09;5.05;;;4.20;;
11711;SDS011;5912;51.034;6.984;2024-02-04T00:52:35;4.47;;;4.07;;
11711;SDS011;5912;51.034;6.984;2024-02-04T00:55:00;4.78;;;4.28;;
11711;SDS011;5912;51.034;6.984;2024-02-04T00:57:25;4.40;;;4.00;;
11711;SDS011;5912;51.034;6.984;2024-02-04T00:59:50;5.30;;;3.92;;
11711;SDS011;5912;51.034;6.984;2024-02-04T01:02:16;4.18;;;3.78;;
11711;SDS011;5912;51.034;6.984;2024-02-04T01:04:41;4.05;;;3.65;;
11711;SDS011;5912;51.034;6.984;2024-02-04T01:07:07;4.10;;;3.70;;
11711;SDS011;5912;51.034;6.984;2024-02-04T01:09:32;4.07;;;3.67;;
11711;SDS011;5912;51.034;6.984;2024-02-04T01:11:57;3.88;;;3.47;;
11711;SDS011;5912;51.034;6.984;2024-02-04T01:14:23;4.03;;;3.67;;
11711;SDS011;5912;51.034;6.984;2024-02-04T01:16:48;3.90;;;3.50;;
11711;SDS011;5912;51.034;6.984;2024-02-04T01:19:13;3.67;;;3.38;;
11711;SDS011;5912;51.034;6.984;2024-02-04T01:21:38;3.75;;;3.45;;
11711;SDS011;5912;51.034;6.984;2024-02-04T01:24:04;4.85;;;3.58;;
11711;SDS011;5912;51.034;6.984;2024-02-04T01:26:29;3.25;;;2.88;;
11711;SDS011;5912;51.034;6.984;2024-02-04T01:28:55;3.67;;;3.00;;
11711;SDS011;5912;51.034;6.984;2024-02-04T01:31:20;4.20;;;3.80;;
11711;SDS011;5912;51.034;6.984;2024-02-04T01:33:45;3.80;;;3.38;;
11711;SDS011;5912;51.034;6.984;2024-02-04T01:36:11;3.72;;;2.88;;
11711;SDS011;5912;51.034;6.984;2024-02-04T01:38:36;3.67;;;3.15;;
11711;SDS011;5912;51.034;6.984;2024-02-04T01:41:01;3.25;;;2.90;;
11711;SDS011;5912;51.034;6.984;2024-02-04T01:43:27;3.13;;;2.83;;
11711;SDS011;5912;51.034;6.984;2024-02-04T01:45:52;3.50;;;3.20;;
11711;SDS011;5912;51.034;6.984;2024-02-04T01:48:18;3.83;;;2.83;;
11711;SDS011;5912;51.034;6.984;2024-02-04T01:50:46;3.40;;;2.60;;
11711;SDS011;5912;51.034;6.984;2024-02-04T01:53:13;3.55;;;2.90;;
11711;SDS011;5912;51.034;6.984;2024-02-04T01:55:40;2.67;;;2.47;;
11711;SDS011;5912;51.034;6.984;2024-02-04T01:58:06;2.88;;;2.53;;
11711;SDS011;5912;51.034;6.984;2024-02-04T02:00:31;2.78;;;2.55;;
11711;SDS011;5912;51.034;6.984;2024-02-04T02:02:57;4.45;;;2.80;;
11711;SDS011;5912;51.034;6.984;2024-02-04T02:05:25;3.10;;;2.80;;
11711;SDS011;5912;51.034;6.984;2024-02-04T02:07:51;2.63;;;2.42;;
11711;SDS011;5912;51.034;6.984;2024-02-04T02:10:17;2.97;;;2.50;;
11711;SDS011;5912;51.034;6.984;2024-02-04T02:12:47;3.20;;;2.90;;
11711;SDS011;5912;51.034;6.984;2024-02-04T02:15:21;3.47;;;3.00;;
11711;SDS011;5912;51.034;6.984;2024-02-04T02:17:57;3.70;;;3.40;;
11711;SDS011;5912;51.034;6.984;2024-02-04T02:20:41;3.95;;;3.13;;
11711;SDS011;5912;51.034;6.984;2024-02-04T02:23:30;3.30;;;3.00;;
11711;SDS011;5912;51.034;6.984;2024-02-04T02:25:59;3.72;;;3.42;;
11711;SDS011;5912;51.034;6.984;2024-02-04T02:28:25;3.45;;;3.15;;
11711;SDS011;5912;51.034;6.984;2024-02-04T02:30:50;4.43;;;3.63;;
11711;SDS011;5912;51.034;6.984;2024-02-04T02:33:16;4.45;;;4.05;;
11711;SDS011;5912;51.034;6.984;2024-02-04T02:35:41;6.22;;;4.80;;
11711;SDS011;5912;51.034;6.984;2024-02-04T02:38:31;4.72;;;4.22;;
11711;SDS011;5912;51.034;6.984;2024-02-04T02:41:04;5.07;;;4.60;;
11711;SDS011;5912;51.034;6.984;2024-02-04T02:43:33;5.97;;;5.00;;
11711;SDS011;5912;51.034;6.984;2024-02-04T02:45:59;5.13;;;4.57;;
11711;SDS011;5912;51.034;6.984;2024-02-04T02:48:25;5.40;;;4.90;;
11711;SDS011;5912;51.034;6.984;2024-02-04T02:50:51;4.63;;;4.22;;
11711;SDS011;5912;51.034;6.984;2024-02-04T02:53:16;5.03;;;4.53;;
11711;SDS011;5912;51.034;6.984;2024-02-04T02:55:44;6.03;;;5.10;;
11711;SDS011;5912;51.034;6.984;2024-02-04T02:58:11;5.15;;;4.60;;
11711;SDS011;5912;51.034;6.984;2024-02-04T03:00:37;5.15;;;4.28;;
11711;SDS011;5912;51.034;6.984;2024-02-04T03:03:02;4.78;;;4.38;;
11711;SDS011;5912;51.034;6.984;2024-02-04T03:05:28;6.40;;;4.43;;
11711;SDS011;5912;51.034;6.984;2024-02-04T03:07:53;4.10;;;3.70;;
11711;SDS011;5912;51.034;6.984;2024-02-04T03:10:18;4.55;;;4.10;;
11711;SDS011;5912;51.034;6.984;2024-02-04T03:12:44;3.63;;;3.33;;
11711;SDS011;5912;51.034;6.984;2024-02-04T03:15:09;5.55;;;3.35;;
11711;SDS011;5912;51.034;6.984;2024-02-04T03:17:34;4.43;;;3.63;;
11711;SDS011;5912;51.034;6.984;2024-02-04T03:20:00;4.13;;;3.72;;
11711;SDS011;5912;51.034;6.984;2024-02-04T03:22:25;3.95;;;3.20;;
11711;SDS011;5912;51.034;6.984;2024-02-04T03:24:50;4.18;;;3.33;;
11711;SDS011;5912;51.034;6.984;2024-02-04T03:27:17;3.72;;;3.30;;
11711;SDS011;5912;51.034;6.984;2024-02-04T03:29:43;3.97;;;3.40;;
11711;SDS011;5912;51.034;6.984;2024-02-04T03:32:08;4.15;;;3.15;;
11711;SDS011;5912;51.034;6.984;2024-02-04T03:34:33;3.30;;;3.00;;
11711;SDS011;5912;51.034;6.984;2024-02-04T03:37:00;3.17;;;2.88;;
11711;SDS011;5912;51.034;6.984;2024-02-04T03:39:26;3.30;;;3.00;;
11711;SDS011;5912;51.034;6.984;2024-02-04T03:41:51;3.38;;;3.00;;
11711;SDS011;5912;51.034;6.984;2024-02-04T03:44:16;3.35;;;3.00;;
11711;SDS011;5912;51.034;6.984;2024-02-04T03:46:43;2.80;;;2.50;;
11711;SDS011;5912;51.034;6.984;2024-02-04T03:49:08;3.95;;;3.28;;
11711;SDS011;5912;51.034;6.984;2024-02-04T03:51:34;4.15;;;3.17;;
11711;SDS011;5912;51.034;6.984;2024-02-04T03:53:59;3.67;;;3.28;;
11711;SDS011;5912;51.034;6.984;2024-02-04T03:56:24;4.35;;;3.40;;
11711;SDS011;5912;51.034;6.984;2024-02-04T03:58:50;4.45;;;3.53;;
11711;SDS011;5912;51.034;6.984;2024-02-04T04:01:15;4.13;;;3.67;;
11711;SDS011;5912;51.034;6.984;2024-02-04T04:03:41;3.65;;;3.35;;
11711;SDS011;5912;51.034;6.984;2024-02-04T04:06:07;4.38;;;3.97;;
11711;SDS011;5912;51.034;6.984;2024-02-04T04:08:33;5.22;;;4.00;;
11711;SDS011;5912;51.034;6.984;2024-02-04T04:10:59;4.43;;;4.03;;
11711;SDS011;5912;51.034;6.984;2024-02-04T04:13:24;4.28;;;3.75;;
11711;SDS011;5912;51.034;6.984;2024-02-04T04:15:50;4.35;;;3.95;;
11711;SDS011;5912;51.034;6.984;2024-02-04T04:18:16;7.18;;;4.95;;
11711;SDS011;5912;51.034;6.984;2024-02-04T04:20:41;4.65;;;4.15;;
11711;SDS011;5912;51.034;6.984;2024-02-04T04:23:06;5.85;;;4.35;;
11711;SDS011;5912;51.034;6.984;2024-02-04T04:25:32;5.18;;;4.47;;
11711;SDS011;5912;51.034;6.984;2024-02-04T04:27:58;5.28;;;4.32;;
11711;SDS011;5912;51.034;6.984;2024-02-04T04:30:23;4.63;;;4.20;;
11711;SDS011;5912;51.034;6.984;2024-02-04T04:32:49;4.63;;;4.20;;
11711;SDS011;5912;51.034;6.984;2024-02-04T04:35:14;4.40;;;4.00;;
11711;SDS011;5912;51.034;6.984;2024-02-04T04:37:39;4.05;;;3.55;;
11711;SDS011;5912;51.034;6.984;2024-02-04T04:40:05;4.80;;;3.67;;
11711;SDS011;5912;51.034;6.984;2024-02-04T04:42:31;3.38;;;3.08;;
11711;SDS011;5912;51.034;6.984;2024-02-04T04:44:56;3.88;;;3.42;;
11711;SDS011;5912;51.034;6.984;2024-02-04T04:47:21;3.50;;;3.03;;
11711;SDS011;5912;51.034;6.984;2024-02-04T04:49:47;3.65;;;3.28;;
11711;SDS011;5912;51.034;6.984;2024-02-04T04:52:12;3.85;;;3.45;;
11711;SDS011;5912;51.034;6.984;2024-02-04T04:54:39;3.67;;;3.22;;
11711;SDS011;5912;51.034;6.984;2024-02-04T04:57:04;4.10;;;3.70;;
11711;SDS011;5912;51.034;6.984;2024-02-04T04:59:30;4.25;;;3.80;;
11711;SDS011;5912;51.034;6.984;2024-02-04T05:01:55;4.45;;;4.00;;
11711;SDS011;5912;51.034;6.984;2024-02-04T05:04:20;4.25;;;3.65;;
11711;SDS011;5912;51.034;6.984;2024-02-04T05:06:50;5.15;;;3.58;;
11711;SDS011;5912;51.034;6.984;2024-02-04T05:09:15;4.35;;;3.95;;
11711;SDS011;5912;51.034;6.984;2024-02-04T05:11:41;5.88;;;4.60;;
11711;SDS011;5912;51.034;6.984;2024-02-04T05:14:06;5.35;;;4.22;;
11711;SDS011;5912;51.034;6.984;2024-02-04T05:16:31;6.00;;;4.00;;
11711;SDS011;5912;51.034;6.984;2024-02-04T05:18:57;5.45;;;4.72;;
11711;SDS011;5912;51.034;6.984;2024-02-04T05:21:22;4.60;;;4.20;;
11711;SDS011;5912;51.034;6.984;2024-02-04T05:23:47;7.15;;;5.07;;
11711;SDS011;5912;51.034;6.984;2024-02-04T05:26:13;5.80;;;5.18;;
11711;SDS011;5912;51.034;6.984;2024-02-04T05:28:38;7.88;;;5.32;;
11711;SDS011;5912;51.034;6.984;2024-02-04T05:31:03;5.53;;;4.53;;
11711;SDS011;5912;51.034;6.984;2024-02-04T05:33:29;6.05;;;5.32;;
11711;SDS011;5912;51.034;6.984;2024-02-04T05:35:54;6.50;;;5.00;;
11711;SDS011;5912;51.034;6.984;2024-02-04T05:38:21;5.25;;;4.75;;
11711;SDS011;5912;51.034;6.984;2024-02-04T05:40:46;6.10;;;5.50;;
11711;SDS011;5912;51.034;6.984;2024-02-04T05:43:12;6.05;;;5.03;;
11711;SDS011;5912;51.034;6.984;2024-02-04T05:45:37;5.78;;;5.18;;
11711;SDS011;5912;51.034;6.984;2024-02-04T05:48:05;8.45;;;5.40;;
11711;SDS011;5912;51.034;6.984;2024-02-04T05:50:34;8.48;;;5.18;;
11711;SDS011;5912;51.034;6.984;2024-02-04T05:53:00;7.60;;;5.13;;
11711;SDS011;5912;51.034;6.984;2024-02-04T05:55:25;7.72;;;5.60;;
11711;SDS011;5912;51.034;6.984;2024-02-04T05:57:50;6.22;;;4.93;;
11711;SDS011;5912;51.034;6.984;2024-02-04T06:00:16;9.77;;;5.38;;
11711;SDS011;5912;51.034;6.984;2024-02-04T06:02:41;5.72;;;4.78;;
11711;SDS011;5912;51.034;6.984;2024-02-04T06:05:08;5.85;;;4.60;;
11711;SDS011;5912;51.034;6.984;2024-02-04T06:07:34;7.45;;;5.68;;
11711;SDS011;5912;51.034;6.984;2024-02-04T06:09:59;7.18;;;5.25;;
11711;SDS011;5912;51.034;6.984;2024-02-04T06:12:25;9.43;;;6.20;;
11711;SDS011;5912;51.034;6.984;2024-02-04T06:14:50;6.90;;;5.60;;
11711;SDS011;5912;51.034;6.984;2024-02-04T06:17:16;8.15;;;6.70;;
11711;SDS011;5912;51.034;6.984;2024-02-04T06:19:41;10.27;;;6.13;;
11711;SDS011;5912;51.034;6.984;2024-02-04T06:22:06;7.63;;;6.38;;
11711;SDS011;5912;51.034;6.984;2024-02-04T06:24:32;7.93;;;5.47;;
11711;SDS011;5912;51.034;6.984;2024-02-04T06:26:57;6.00;;;5.40;;
11711;SDS011;5912;51.034;6.984;2024-02-04T06:29:22;6.32;;;5.22;;
11711;SDS011;5912;51.034;6.984;2024-02-04T06:31:48;6.13;;;4.65;;
11711;SDS011;5912;51.034;6.984;2024-02-04T06:34:13;6.50;;;5.30;;
11711;SDS011;5912;51.034;6.984;2024-02-04T06:36:42;5.82;;;4.20;;
11711;SDS011;5912;51.034;6.984;2024-02-04T06:39:09;5.90;;;4.28;;
11711;SDS011;5912;51.034;6.984;2024-02-04T06:41:34;5.50;;;4.45;;
11711;SDS011;5912;51.034;6.984;2024-02-04T06:44:00;4.43;;;3.63;;
11711;SDS011;5912;51.034;6.984;2024-02-04T06:46:28;5.05;;;3.88;;
11711;SDS011;5912;51.034;6.984;2024-02-04T06:48:53;4.97;;;3.70;;
11711;SDS011;5912;51.034;6.984;2024-02-04T06:51:19;4.95;;;4.00;;
11711;SDS011;5912;51.034;6.984;2024-02-04T06:53:45;5.35;;;3.78;;
11711;SDS011;5912;51.034;6.984;2024-02-04T06:56:10;4.20;;;3.78;;
11711;SDS011;5912;51.034;6.984;2024-02-04T06:58:39;4.97;;;4.10;;
11711;SDS011;5912;51.034;6.984;2024-02-04T07:01:05;4.07;;;3.67;;
11711;SDS011;5912;51.034;6.984;2024-02-04T07:03:30;4.18;;;3.78;;
11711;SDS011;5912;51.034;6.984;2024-02-04T07:05:57;4.38;;;3.97;;
11711;SDS011;5912;51.034;6.984;2024-02-04T07:08:22;6.95;;;5.03;;
11711;SDS011;5912;51.034;6.984;2024-02-04T07:10:48;4.97;;;4.47;;
11711;SDS011;5912;51.034;6.984;2024-02-04T07:13:13;4.78;;;4.38;;
11711;SDS011;5912;51.034;6.984;2024-02-04T07:19:01;3.83;;;3.50;;
11711;SDS011;5912;51.034;6.984;2024-02-04T07:21:26;3.08;;;2.53;;
11711;SDS011;5912;51.034;6.984;2024-02-04T07:23:51;2.90;;;2.65;;
11711;SDS011;5912;51.034;6.984;2024-02-04T07:26:16;3.33;;;2.38;;
11711;SDS011;5912;51.034;6.984;2024-02-04T07:28:42;6.38;;;2.28;;
11711;SDS011;5912;51.034;6.984;2024-02-04T07:31:07;2.10;;;1.77;;
11711;SDS011;5912;51.034;6.984;2024-02-04T07:33:32;1.83;;;1.60;;
11711;SDS011;5912;51.034;6.984;2024-02-04T07:35:58;2.47;;;1.50;;
11711;SDS011;5912;51.034;6.984;2024-02-04T07:38:23;1.70;;;1.38;;
11711;SDS011;5912;51.034;6.984;2024-02-04T07:40:48;2.28;;;1.10;;
11711;SDS011;5912;51.034;6.984;2024-02-04T07:43:13;1.20;;;1.10;;
11711;SDS011;5912;51.034;6.984;2024-02-04T07:45:39;1.23;;;1.00;;
11711;SDS011;5912;51.034;6.984;2024-02-04T07:48:04;1.02;;;1.00;;
11711;SDS011;5912;51.034;6.984;2024-02-04T07:50:30;1.20;;;1.05;;
11711;SDS011;5912;51.034;6.984;2024-02-04T07:52:55;1.00;;;0.90;;
11711;SDS011;5912;51.034;6.984;2024-02-04T07:55:20;1.10;;;1.00;;
11711;SDS011;5912;51.034;6.984;2024-02-04T07:57:46;1.23;;;0.90;;
11711;SDS011;5912;51.034;6.984;2024-02-04T08:00:11;0.82;;;0.80;;
11711;SDS011;5912;51.034;6.984;2024-02-04T08:02:37;0.80;;;0.80;;
11711;SDS011;5912;51.034;6.984;2024-02-04T08:05:03;0.88;;;0.88;;
11711;SDS011;5912;51.034;6.984;2024-02-04T08:07:29;1.10;;;0.90;;
11711;SDS011;5912;51.034;6.984;2024-02-04T08:09:55;1.02;;;0.80;;
11711;SDS011;5912;51.034;6.984;2024-02-04T08:12:20;0.70;;;0.70;;
11711;SDS011;5912;51.034;6.984;2024-02-04T08:14:45;1.55;;;0.80;;
11711;SDS011;5912;51.034;6.984;2024-02-04T08:17:11;0.70;;;0.70;;
11711;SDS011;5912;51.034;6.984;2024-02-04T08:19:36;1.55;;;1.10;;
11711;SDS011;5912;51.034;6.984;2024-02-04T08:22:01;1.48;;;1.20;;
11711;SDS011;5912;51.034;6.984;2024-02-04T08:24:27;1.13;;;1.02;;
11711;SDS011;5912;51.034;6.984;2024-02-04T08:26:54;1.60;;;1.30;;
11711;SDS011;5912;51.034;6.984;2024-02-04T08:29:19;1.40;;;1.30;;
11711;SDS011;5912;51.034;6.984;2024-02-04T08:31:45;1.85;;;1.40;;
11711;SDS011;5912;51.034;6.984;2024-02-04T08:34:10;1.63;;;1.50;;
11711;SDS011;5912;51.034;6.984;2024-02-04T08:36:35;1.70;;;1.60;;
11711;SDS011;5912;51.034;6.984;2024-02-04T08:39:01;2.22;;;1.70;;
11711;SDS011;5912;51.034;6.984;2024-02-04T08:41:26;3.08;;;1.65;;
11711;SDS011;5912;51.034;6.984;2024-02-04T08:43:54;2.35;;;1.80;;
11711;SDS011;5912;51.034;6.984;2024-02-04T08:46:19;2.42;;;2.00;;
11711;SDS011;5912;51.034;6.984;2024-02-04T08:48:45;3.13;;;1.90;;
11711;SDS011;5912;51.034;6.984;2024-02-04T08:51:11;2.30;;;2.10;;
11711;SDS011;5912;51.034;6.984;2024-02-04T08:53:37;3.30;;;1.85;;
11711;SDS011;5912;51.034;6.984;2024-02-04T08:56:02;2.70;;;2.20;;
11711;SDS011;5912;51.034;6.984;2024-02-04T08:58:28;2.58;;;1.98;;
11711;SDS011;5912;51.034;6.984;2024-02-04T09:00:54;2.22;;;2.03;;
11711;SDS011;5912;51.034;6.984;2024-02-04T09:03:19;2.35;;;1.83;;
11711;SDS011;5912;51.034;6.984;2024-02-04T09:05:44;4.15;;;2.00;;
11711;SDS011;5912;51.034;6.984;2024-02-04T09:08:10;4.80;;;3.97;;
11711;SDS011;5912;51.034;6.984;2024-02-04T09:10:35;2.72;;;2.53;;
11711;SDS011;5912;51.034;6.984;2024-02-04T09:13:01;2.33;;;2.13;;
11711;SDS011;5912;51.034;6.984;2024-02-04T09:15:26;3.67;;;2.35;;
11711;SDS011;5912;51.034;6.984;2024-02-04T09:17:51;2.53;;;2.28;;
11711;SDS011;5912;51.034;6.984;2024-02-04T09:20:17;2.53;;;2.30;;
11711;SDS011;5912;51.034;6.984;2024-02-04T09:22:42;3.35;;;2.88;;
11711;SDS011;5912;51.034;6.984;2024-02-04T09:25:08;2.58;;;2.22;;
11711;SDS011;5912;51.034;6.984;2024-02-04T09:27:33;2.33;;;2.13;;
11711;SDS011;5912;51.034;6.984;2024-02-04T09:29:59;1.90;;;1.60;;
11711;SDS011;5912;51.034;6.984;2024-02-04T09:32:24;1.70;;;1.60;;
11711;SDS011;5912;51.034;6.984;2024-02-04T09:34:50;2.47;;;1.45;;
11711;SDS011;5912;51.034;6.984;2024-02-04T09:37:15;2.92;;;2.60;;
11711;SDS011;5912;51.034;6.984;2024-02-04T09:39:41;1.40;;;1.30;;
11711;SDS011;5912;51.034;6.984;2024-02-04T09:42:06;1.27;;;1.08;;
11711;SDS011;5912;51.034;6.984;2024-02-04T09:44:32;1.27;;;1.17;;
11711;SDS011;5912;51.034;6.984;2024-02-04T09:46:58;1.10;;;1.00;;
11711;SDS011;5912;51.034;6.984;2024-02-04T09:49:26;1.00;;;0.90;;
11711;SDS011;5912;51.034;6.984;2024-02-04T09:51:52;1.10;;;1.00;;
11711;SDS011;5912;51.034;6.984;2024-02-04T09:54:17;1.75;;;1.10;;
11711;SDS011;5912;51.034;6.984;2024-02-04T09:56:46;0.90;;;0.90;;
11711;SDS011;5912;51.034;6.984;2024-02-04T09:59:12;1.15;;;1.05;;
11711;SDS011;5912;51.034;6.984;2024-02-04T10:01:37;1.60;;;1.30;;
11711;SDS011;5912;51.034;6.984;2024-02-04T10:04:04;2.10;;;1.60;;
11711;SDS011;5912;51.034;6.984;2024-02-04T10:06:30;1.95;;;1.75;;
11711;SDS011;5912;51.034;6.984;2024-02-04T10:08:55;1.73;;;1.50;;
11711;SDS011;5912;51.034;6.984;2024-02-04T10:11:21;1.42;;;1.30;;
11711;SDS011;5912;51.034;6.984;2024-02-04T10:13:47;1.50;;;1.40;;
11711;SDS011;5912;51.034;6.984;2024-02-04T10:16:15;2.53;;;1.60;;
11711;SDS011;5912;51.034;6.984;2024-02-04T10:18:42;1.52;;;1.40;;
11711;SDS011;5912;51.034;6.984;2024-02-04T10:21:17;1.80;;;1.58;;
11711;SDS011;5912;51.034;6.984;2024-02-04T10:23:44;2.58;;;2.03;;
11711;SDS011;5912;51.034;6.984;2024-02-04T10:26:09;2.72;;;1.60;;
11711;SDS011;5912;51.034;6.984;2024-02-04T10:28:35;1.80;;;1.40;;
11711;SDS011;5912;51.034;6.984;2024-02-04T10:31:01;2.03;;;1.67;;
11711;SDS011;5912;51.034;6.984;2024-02-04T10:33:29;2.08;;;1.70;;
11711;SDS011;5912;51.034;6.984;2024-02-04T10:35:56;2.50;;;2.30;;
11711;SDS011;5912;51.034;6.984;2024-02-04T10:38:21;3.33;;;2.42;;
11711;SDS011;5912;51.034;6.984;2024-02-04T10:40:46;3.53;;;2.83;;
11711;SDS011;5912;51.034;6.984;2024-02-04T10:43:14;3.53;;;2.65;;
11711;SDS011;5912;51.034;6.984;2024-02-04T10:45:40;2.55;;;2.30;;
11711;SDS011;5912;51.034;6.984;2024-02-04T10:48:08;4.05;;;2.28;;
11711;SDS011;5912;51.034;6.984;2024-02-04T10:50:36;2.10;;;1.88;;
11711;SDS011;5912;51.034;6.984;2024-02-04T10:53:06;2.53;;;2.20;;
11711;SDS011;5912;51.034;6.984;2024-02-04T10:55:41;2.38;;;2.05;;
11711;SDS011;5912;51.034;6.984;2024-02-04T10:58:09;2.10;;;1.70;;
11711;SDS011;5912;51.034;6.984;2024-02-04T11:00:37;2.88;;;2.05;;
11711;SDS011;5912;51.034;6.984;2024-02-04T11:03:03;2.47;;;2.13;;
11711;SDS011;5912;51.034;6.984;2024-02-04T11:05:29;2.28;;;2.00;;
11711;SDS011;5912;51.034;6.984;2024-02-04T11:07:55;2.83;;;1.95;;
11711;SDS011;5912;51.034;6.984;2024-02-04T11:10:22;1.60;;;1.50;;
11711;SDS011;5912;51.034;6.984;2024-02-04T11:12:48;2.17;;;1.98;;
11711;SDS011;5912;51.034;6.984;2024-02-04T11:15:15;3.55;;;1.90;;
11711;SDS011;5912;51.034;6.984;2024-02-04T11:20:57;2.40;;;1.85;;
11711;SDS011;5912;51.034;6.984;2024-02-04T11:23:31;1.55;;;1.45;;
11711;SDS011;5912;51.034;6.984;2024-02-04T11:26:00;1.80;;;1.50;;
11711;SDS011;5912;51.034;6.984;2024-02-04T11:28:26;1.60;;;1.50;;
11711;SDS011;5912;51.034;6.984;2024-02-04T11:30:52;1.50;;;1.40;;
11711;SDS011;5912;51.034;6.984;2024-02-04T11:33:18;1.70;;;1.60;;
11711;SDS011;5912;51.034;6.984;2024-02-04T11:35:44;1.70;;;1.60;;
11711;SDS011;5912;51.034;6.984;2024-02-04T11:38:10;2.10;;;1.90;;
11711;SDS011;5912;51.034;6.984;2024-02-04T11:40:39;1.83;;;1.67;;
11711;SDS011;5912;51.034;6.984;2024-02-04T11:43:06;2.80;;;1.60;;
11711;SDS011;5912;51.034;6.984;2024-02-04T11:45:42;1.67;;;1.58;;
11711;SDS011;5912;51.034;6.984;2024-02-04T11:48:09;2.90;;;2.00;;
11711;SDS011;5912;51.034;6.984;2024-02-04T11:50:35;1.65;;;1.55;;
11711;SDS011;5912;51.034;6.984;2024-02-04T11:53:05;2.10;;;1.90;;
11711;SDS011;5912;51.034;6.984;2024-02-04T11:55:31;2.15;;;1.80;;
11711;SDS011;5912;51.034;6.984;2024-02-04T11:57:57;2.20;;;1.90;;
11711;SDS011;5912;51.034;6.984;2024-02-04T12:00:22;2.00;;;1.80;;
11711;SDS011;5912;51.034;6.984;2024-02-04T12:02:48;2.50;;;1.75;;
11711;SDS011;5912;51.034;6.984;2024-02-04T12:05:25;2.33;;;1.50;;
11711;SDS011;5912;51.034;6.984;2024-02-04T12:07:50;2.90;;;2.08;;
11711;SDS011;5912;51.034;6.984;2024-02-04T12:10:16;1.95;;;1.77;;
11711;SDS011;5912;51.034;6.984;2024-02-04T12:12:41;2.80;;;1.70;;
11711;SDS011;5912;51.034;6.984;2024-02-04T12:15:07;3.17;;;1.95;;
11711;SDS011;5912;51.034;6.984;2024-02-04T12:17:32;1.77;;;1.60;;
11711;SDS011;5912;51.034;6.984;2024-02-04T12:19:57;3.78;;;1.70;;
11711;SDS011;5912;51.034;6.984;2024-02-04T12:22:23;3.13;;;1.50;;
11711;SDS011;5912;51.034;6.984;2024-02-04T12:24:48;3.28;;;2.80;;
11711;SDS011;5912;51.034;6.984;2024-02-04T12:27:15;3.83;;;3.20;;
11711;SDS011;5912;51.034;6.984;2024-02-04T12:29:41;3.85;;;2.80;;
11711;SDS011;5912;51.034;6.984;2024-02-04T12:32:06;1.90;;;1.75;;
11711;SDS011;5912;51.034;6.984;2024-02-04T12:34:32;3.65;;;3.25;;
11711;SDS011;5912;51.034;6.984;2024-02-04T12:36:59;5.63;;;4.40;;
11711;SDS011;5912;51.034;6.984;2024-02-04T12:39:25;8.25;;;7.57;;
11711;SDS011;5912;51.034;6.984;2024-02-04T12:41:51;3.50;;;2.40;;
11711;SDS011;5912;51.034;6.984;2024-02-04T12:44:17;2.13;;;1.92;;
11711;SDS011;5912;51.034;6.984;2024-02-04T12:46:43;3.20;;;2.50;;
11711;SDS011;5912;51.034;6.984;2024-02-04T12:49:08;2.25;;;2.00;;
11711;SDS011;5912;51.034;6.984;2024-02-04T12:51:34;1.70;;;1.60;;
11711;SDS011;5912;51.034;6.984;2024-02-04T12:56:53;1.83;;;1.70;;
11711;SDS011;5912;51.034;6.984;2024-02-04T13:01:55;1.58;;;1.30;;
11711;SDS011;5912;51.034;6.984;2024-02-04T13:04:22;2.30;;;1.80;;
11711;SDS011;5912;51.034;6.984;2024-02-04T13:06:47;1.83;;;1.40;;
11711;SDS011;5912;51.034;6.984;2024-02-04T13:09:16;1.55;;;1.20;;
11711;SDS011;5912;51.034;6.984;2024-02-04T13:11:42;1.92;;;1.58;;
11711;SDS011;5912;51.034;6.984;2024-02-04T13:14:07;4.32;;;3.40;;
11711;SDS011;5912;51.034;6.984;2024-02-04T13:16:33;2.70;;;2.50;;
11711;SDS011;5912;51.034;6.984;2024-02-04T13:19:00;2.45;;;2.25;;
11711;SDS011;5912;51.034;6.984;2024-02-04T13:21:26;2.90;;;2.47;;
11711;SDS011;5912;51.034;6.984;2024-02-04T13:23:52;3.47;;;3.15;;
11711;SDS011;5912;51.034;6.984;2024-02-04T13:26:17;3.38;;;2.90;;
11711;SDS011;5912;51.034;6.984;2024-02-04T13:28:43;3.17;;;2.40;;
11711;SDS011;5912;51.034;6.984;2024-02-04T13:31:08;2.55;;;2.35;;
11711;SDS011;5912;51.034;6.984;2024-02-04T13:33:34;2.47;;;2.22;;
11711;SDS011;5912;51.034;6.984;2024-02-04T13:35:59;3.05;;;2.70;;
11711;SDS011;5912;51.034;6.984;2024-02-04T13:38:24;3.30;;;3.00;;
11711;SDS011;5912;51.034;6.984;2024-02-04T13:40:49;6.18;;;2.55;;
11711;SDS011;5912;51.034;6.984;2024-02-04T13:43:15;3.38;;;3.10;;
11711;SDS011;5912;51.034;6.984;2024-02-04T13:45:41;3.63;;;2.90;;
11711;SDS011;5912;51.034;6.984;2024-02-04T13:48:06;2.97;;;2.40;;
11711;SDS011;5912;51.034;6.984;2024-02-04T13:50:32;3.25;;;2.50;;
11711;SDS011;5912;51.034;6.984;2024-02-04T13:52:57;2.75;;;2.55;;
11711;SDS011;5912;51.034;6.984;2024-02-04T13:55:24;3.47;;;2.85;;
11711;SDS011;5912;51.034;6.984;2024-02-04T13:57:49;2.83;;;2.63;;
11711;SDS011;5912;51.034;6.984;2024-02-04T14:00:15;2.97;;;2.25;;
11711;SDS011;5912;51.034;6.984;2024-02-04T14:02:42;3.30;;;2.40;;
11711;SDS011;5912;51.034;6.984;2024-02-04T14:05:08;2.70;;;2.42;;
11711;SDS011;5912;51.034;6.984;2024-02-04T14:07:33;2.88;;;2.15;;
11711;SDS011;5912;51.034;6.984;2024-02-04T14:09:59;2.22;;;2.03;;
11711;SDS011;5912;51.034;6.984;2024-02-04T14:12:24;1.73;;;1.60;;
11711;SDS011;5912;51.034;6.984;2024-02-04T14:14:49;1.65;;;1.55;;
11711;SDS011;5912;51.034;6.984;2024-02-04T14:17:15;1.60;;;1.50;;
11711;SDS011;5912;51.034;6.984;2024-02-04T14:19:40;2.10;;;1.90;;
11711;SDS011;5912;51.034;6.984;2024-02-04T14:22:06;2.45;;;1.38;;
11711;SDS011;5912;51.034;6.984;2024-02-04T14:24:31;1.63;;;1.52;;
11711;SDS011;5912;51.034;6.984;2024-02-04T14:26:57;2.80;;;1.77;;
11711;SDS011;5912;51.034;6.984;2024-02-04T14:29:23;2.33;;;1.70;;
11711;SDS011;5912;51.034;6.984;2024-02-04T14:31:49;1.35;;;1.23;;
11711;SDS011;5912;51.034;6.984;2024-02-04T14:34:14;1.70;;;1.52;;
11711;SDS011;5912;51.034;6.984;2024-02-04T14:36:40;1.70;;;1.38;;
11711;SDS011;5912;51.034;6.984;2024-02-04T14:39:05;1.75;;;1.50;;
11711;SDS011;5912;51.034;6.984;2024-02-04T14:41:31;2.70;;;1.40;;
11711;SDS011;5912;51.034;6.984;2024-02-04T14:43:56;2.58;;;1.40;;
11711;SDS011;5912;51.034;6.984;2024-02-04T14:46:21;1.20;;;1.10;;
11711;SDS011;5912;51.034;6.984;2024-02-04T14:48:46;1.10;;;1.00;;
11711;SDS011;5912;51.034;6.984;2024-02-04T14:51:12;1.13;;;1.00;;
11711;SDS011;5912;51.034;6.984;2024-02-04T14:53:37;1.60;;;1.20;;
11711;SDS011;5912;51.034;6.984;2024-02-04T14:56:03;1.20;;;1.10;;
11711;SDS011;5912;51.034;6.984;2024-02-04T14:58:29;1.35;;;1.00;;
11711;SDS011;5912;51.034;6.984;2024-02-04T15:00:54;1.17;;;1.02;;
11711;SDS011;5912;51.034;6.984;2024-02-04T15:03:20;1.20;;;1.10;;
11711;SDS011;5912;51.034;6.984;2024-02-04T15:05:46;1.48;;;1.30;;